WetterOnline ( https://www.wetteronline.de )

Wetter aktuell Putbus

Aktuelles Wetter: Putbus/Rügen (41m)

6-stündlich | Neueste Meldungen
Ortszeit Temperatur Wetter
Mi, 29.05. 20:00 18.3° C bedeckt
Mi, 29.05. 14:00 20.5° C bedeckt
Mi, 29.05. 8:00 16.5° C wolkenlos
Mi, 29.05. 2:00 8.9° C wolkenlos
Di, 28.05. 20:00 15.1° C wolkig
Di, 28.05. 14:00 16.7° C leichter Regen
Di, 28.05. 8:00 16.9° C wolkig
Di, 28.05. 2:00 14.3° C Nebel
Ortszeit Temperatur Wetter
Mi, 29.05. 22:30 16.0° C leichter Regen
Mi, 29.05. 22:20 16.0° C leichter Regen
Mi, 29.05. 22:10 16.2° C leichter Regen
Mi, 29.05. 22:00 16.4° C bedeckt
Mi, 29.05. 21:50 16.4° C bedeckt
Mi, 29.05. 21:40 16.6° C bedeckt
Mi, 29.05. 21:30 16.5° C bedeckt
Mi, 29.05. 21:00 16.8° C bedeckt
Mi, 29.05. 20:30 17.4° C bedeckt
Mi, 29.05. 20:00 18.3° C bedeckt
Mi, 29.05. 19:30 19.9° C bewölkt
Ortszeit Relative Feuchte Sichtweite
Mi, 29.05. 20:00 66% >70 km
Mi, 29.05. 14:00 50% 65 km
Mi, 29.05. 8:00 68% 55 km
Mi, 29.05. 2:00 97% 50 km
Di, 28.05. 20:00 79% >70 km
Di, 28.05. 14:00 76% 45 km
Di, 28.05. 8:00 87% 35 km
Di, 28.05. 2:00 98% 0.6 km
Ortszeit Relative Feuchte Sichtweite
Mi, 29.05. 22:30 85% 50 km
Mi, 29.05. 22:20 85% -
Mi, 29.05. 22:10 81% -
Mi, 29.05. 22:00 78% >70 km
Mi, 29.05. 21:50 78% -
Mi, 29.05. 21:40 77% -
Mi, 29.05. 21:30 80% >70 km
Mi, 29.05. 21:00 77% >70 km
Mi, 29.05. 20:30 73% >70 km
Mi, 29.05. 20:00 66% >70 km
Mi, 29.05. 19:30 58% >70 km
Ortszeit Niederschlagsmenge Niederschlagsart
Mi, 29.05. 20:00 0.1 l/m2 in 12 Std. Regen
Mi, 29.05. 14:00 0.0 l/m2 in 6 Std. -
Mi, 29.05. 8:00 0.0 l/m2 in 12 Std. -
Mi, 29.05. 2:00 0.0 l/m2 in 6 Std. -
Di, 28.05. 20:00 0.1 l/m2 in 12 Std. Regen
Di, 28.05. 14:00 0.1 l/m2 in 6 Std. Regen
Di, 28.05. 8:00 0.1 l/m2 in 12 Std. Regen
Di, 28.05. 2:00 0.1 l/m2 in 6 Std. Regen
Ortszeit Niederschlagsmenge Niederschlagsart
Mi, 29.05. 22:30 <0.05 l/m2 in 30 Min -
Mi, 29.05. 22:20 keine Meldung -
Mi, 29.05. 22:10 keine Meldung -
Mi, 29.05. 22:00 0.0 l/m2 in 1 Std. -
Mi, 29.05. 21:50 keine Meldung -
Mi, 29.05. 21:40 keine Meldung -
Mi, 29.05. 21:30 0.0 l/m2 in 30 Min -
Mi, 29.05. 21:00 0.0 l/m2 in 1 Std. -
Mi, 29.05. 20:30 0.0 l/m2 in 30 Min -
Mi, 29.05. 20:00 <0.05 l/m2 in 1 Std. Regen
Mi, 29.05. 19:30 <0.05 l/m2 in 30 Min Schneeregen
Ortszeit Stärke Spitze Richtung
km/h Bft. km/h Grad Sektor
Mi, 29.05. 20:00 17 3 35 230° SW
Mi, 29.05. 14:00 15 3 35 170° S
Mi, 29.05. 8:00 11 2 29 170° S
Mi, 29.05. 2:00 4 1 14 160° S
Di, 28.05. 20:00 11 2 40 280° W
Di, 28.05. 14:00 19 3 37 240° SW
Di, 28.05. 8:00 4 1 18 190° S
Di, 28.05. 2:00 6 1 19 20° N
Ortszeit Stärke Spitze Richtung
km/h Bft. km/h Grad Sektor
Mi, 29.05. 22:30 4 1 11 150° SO
Mi, 29.05. 22:20 4 1 - 150° SO
Mi, 29.05. 22:10 4 1 - 180° S
Mi, 29.05. 22:00 7 2 18 220° SW
Mi, 29.05. 21:50 7 2 - 220° SW
Mi, 29.05. 21:40 9 2 - 220° SW
Mi, 29.05. 21:30 7 2 11 230° SW
Mi, 29.05. 21:00 7 2 25 220° SW
Mi, 29.05. 20:30 11 2 25 240° SW
Mi, 29.05. 20:00 17 3 35 230° SW
Mi, 29.05. 19:30 17 3 30 200° S
Ortszeit Untergrenze Bedeckung Gattung
total tief tief mittel hoch
Mi, 29.05. 20:00 1470 m 8/8 8/8 - - -
Mi, 29.05. 14:00 2700 m 8/8 8/8 - - -
Mi, 29.05. 8:00 - 0/8 0/8 - - -
Mi, 29.05. 2:00 - 0/8 0/8 - - -
Di, 28.05. 20:00 2100 m 8/8 3/8 - - -
Di, 28.05. 14:00 1500 m 8/8 8/8 - - -
Di, 28.05. 8:00 510 m 8/8 1/8 - - -
Di, 28.05. 2:00 9000 m 3/8 0/8 - - -
Ortszeit Bedeckungsgrad in Achtel und Wolkenuntergrenze
Mi, 29.05. 22:30 7(1500m)
Mi, 29.05. 22:20 7(1500m)
Mi, 29.05. 22:10 8
Mi, 29.05. 22:00 7(1500m) 8(2100m)
Mi, 29.05. 21:50 7(1500m) 8(2100m)
Mi, 29.05. 21:40 8
Mi, 29.05. 21:30 6(1800m) 8(2400m)
Mi, 29.05. 21:00 2(1290m) 6(1800m) 8(2400m)
Mi, 29.05. 20:30 2(1350m) 5(2100m) 8(2700m)
Mi, 29.05. 20:00 2(1470m) 7(1800m) 8(2700m)
Mi, 29.05. 19:30 7(1500m)
Ortszeit Luftdruck NN (hPa) Tendenz (hPa in 3 Std.)
Mi, 29.05. 20:00 1009 - 0,4
Mi, 29.05. 14:00 1011 - 1,8
Mi, 29.05. 8:00 1014 - 1,3
Mi, 29.05. 2:00 1016 - 0,5
Di, 28.05. 20:00 1017 + 0,6
Di, 28.05. 14:00 1015 + 1,6
Di, 28.05. 8:00 1013 - 0,8
Di, 28.05. 2:00 1015 - 2,5
Ortszeit Luftdruck NN (hPa) Tendenz (hPa in 3 Std.)
Mi, 29.05. 22:30 1009 + 0,3
Mi, 29.05. 22:20 1009 keine Meldung
Mi, 29.05. 22:10 1009 keine Meldung
Mi, 29.05. 22:00 1009 + 0,3
Mi, 29.05. 21:50 1009 keine Meldung
Mi, 29.05. 21:40 1009 keine Meldung
Mi, 29.05. 21:30 1009 + 0,3
Mi, 29.05. 21:00 1009 + 0,1
Mi, 29.05. 20:30 1009 - 0,1
Mi, 29.05. 20:00 1009 - 0,4
Mi, 29.05. 19:30 1009 - 0,9
Ortszeit Schneehöhe (cm)
Mi, 29.05. 20:00 0
Mi, 29.05. 14:00 0
Mi, 29.05. 8:00 0
Mi, 29.05. 2:00 0
Di, 28.05. 20:00 0
Di, 28.05. 14:00 0
Di, 28.05. 8:00 0
Di, 28.05. 2:00 0
Ortszeit Schneehöhe (cm)
Mi, 29.05. 22:30 0
Mi, 29.05. 22:20 0
Mi, 29.05. 22:10 -
Mi, 29.05. 22:00 0
Mi, 29.05. 21:50 0
Mi, 29.05. 21:40 -
Mi, 29.05. 21:30 0
Mi, 29.05. 21:00 0
Mi, 29.05. 20:30 0
Mi, 29.05. 20:00 0
Mi, 29.05. 19:30 0
Link zu dieser Seite / Seite empfehlen

Das Wetter in ...